createdAt,value
2018-08-20T00:00:50.343Z,0
2018-08-20T00:01:51.074Z,0
2018-08-20T00:02:50.264Z,0
2018-08-20T00:03:50.877Z,0
2018-08-20T00:04:49.774Z,0
2018-08-20T00:05:50.869Z,0
2018-08-20T00:06:50.041Z,0
2018-08-20T00:07:50.154Z,0
2018-08-20T00:09:12.214Z,0
2018-08-20T00:10:13.995Z,0
2018-08-20T00:11:13.628Z,0
2018-08-20T00:12:13.028Z,0
2018-08-20T00:13:13.198Z,0
2018-08-20T00:14:56.604Z,0
2018-08-20T00:15:57.901Z,0
2018-08-20T00:17:20.033Z,0
2018-08-20T00:18:19.070Z,0
2018-08-20T00:19:20.228Z,0
2018-08-20T00:20:19.512Z,0
2018-08-20T00:21:19.361Z,0
2018-08-20T00:22:19.197Z,0
2018-08-20T00:23:19.375Z,0
2018-08-20T00:24:19.145Z,0
2018-08-20T00:25:18.886Z,0
2018-08-20T00:27:03.029Z,0
2018-08-20T00:28:05.986Z,0
2018-08-20T00:29:03.846Z,0
2018-08-20T00:30:25.348Z,0
2018-08-20T00:31:26.124Z,0
2018-08-20T00:32:25.862Z,0
2018-08-20T00:33:25.933Z,0
2018-08-20T00:34:25.822Z,0
2018-08-20T00:35:47.592Z,0
2018-08-20T00:36:48.508Z,0
2018-08-20T00:37:48.148Z,0
2018-08-20T00:38:48.312Z,0
2018-08-20T00:40:09.848Z,0
2018-08-20T00:41:32.422Z,0
2018-08-20T00:42:33.066Z,0
2018-08-20T00:43:33.019Z,0
2018-08-20T00:44:32.825Z,0
2018-08-20T00:45:55.498Z,0
2018-08-20T00:46:55.537Z,0
2018-08-20T00:47:55.269Z,0
2018-08-20T00:48:55.021Z,0
2018-08-20T00:50:16.349Z,0
2018-08-20T00:51:37.796Z,0
2018-08-20T00:52:38.553Z,0
2018-08-20T00:53:38.736Z,0
2018-08-20T00:54:38.174Z,0
2018-08-20T00:55:38.177Z,0
2018-08-20T00:56:37.913Z,0
2018-08-20T00:57:38.607Z,0
2018-08-20T00:58:38.401Z,0
2018-08-20T00:59:38.203Z,0
2018-08-20T01:00:37.958Z,0
2018-08-20T01:01:38.092Z,0
2018-08-20T01:02:37.984Z,0
2018-08-20T01:04:00.355Z,0
2018-08-20T01:05:22.525Z,0
2018-08-20T01:06:23.095Z,0
2018-08-20T01:07:23.300Z,0
2018-08-20T01:08:23.000Z,0
2018-08-20T01:09:44.921Z,0
2018-08-20T01:10:44.698Z,0
2018-08-20T01:11:44.551Z,0
2018-08-20T01:12:44.255Z,0
2018-08-20T01:13:45.029Z,0
2018-08-20T01:14:45.075Z,0
2018-08-20T01:15:45.044Z,0
2018-08-20T01:16:44.984Z,0
2018-08-20T01:17:44.933Z,0
2018-08-20T01:18:44.889Z,0
2018-08-20T01:19:44.656Z,0
2018-08-20T01:20:44.459Z,0
2018-08-20T01:22:06.450Z,0
2018-08-20T01:23:06.922Z,0
2018-08-20T01:24:06.874Z,0
2018-08-20T01:25:06.638Z,0
2018-08-20T01:26:06.376Z,0
2018-08-20T01:27:07.062Z,0
2018-08-20T01:28:06.691Z,0
2018-08-20T01:29:29.656Z,0
2018-08-20T01:30:30.299Z,0
2018-08-20T01:31:30.154Z,0
2018-08-20T01:32:29.653Z,0
2018-08-20T01:33:30.232Z,0
2018-08-20T01:34:29.865Z,0
2018-08-20T01:35:29.702Z,0
2018-08-20T01:36:30.269Z,0
2018-08-20T01:37:29.694Z,0
2018-08-20T01:38:30.380Z,0
2018-08-20T01:39:29.779Z,0
2018-08-20T01:40:29.684Z,0
2018-08-20T01:41:29.362Z,0
2018-08-20T01:42:29.964Z,0
2018-08-20T01:43:29.763Z,0
2018-08-20T01:44:29.284Z,0
2018-08-20T01:45:29.930Z,0
2018-08-20T01:46:29.595Z,0
2018-08-20T01:47:51.420Z,0
2018-08-20T01:48:52.198Z,0
2018-08-20T01:49:52.199Z,0
2018-08-20T01:50:51.857Z,0
2018-08-20T01:51:51.506Z,0
2018-08-20T01:52:51.932Z,0
2018-08-20T01:53:51.783Z,0
2018-08-20T01:54:52.398Z,0
2018-08-20T01:55:51.916Z,0
2018-08-20T01:56:51.826Z,0
2018-08-20T01:57:52.793Z,0
2018-08-20T01:58:52.367Z,0
2018-08-20T01:59:52.600Z,0
2018-08-20T02:00:52.469Z,0
2018-08-20T02:01:52.502Z,0
2018-08-20T02:03:13.687Z,0
2018-08-20T02:04:14.526Z,0
2018-08-20T02:05:14.335Z,0
2018-08-20T02:06:14.422Z,0
2018-08-20T02:07:13.946Z,0
2018-08-20T02:08:14.338Z,0
2018-08-20T02:09:14.438Z,0
2018-08-20T02:10:14.449Z,0
2018-08-20T02:11:14.321Z,0
2018-08-20T02:12:14.082Z,0
2018-08-20T02:13:13.615Z,0
2018-08-20T02:14:14.300Z,0
2018-08-20T02:15:14.052Z,0
2018-08-20T02:16:13.569Z,0
2018-08-20T02:17:14.700Z,0
2018-08-20T02:18:14.431Z,0
2018-08-20T02:19:35.870Z,0
2018-08-20T02:20:37.010Z,0
2018-08-20T02:21:36.172Z,0
2018-08-20T02:22:35.978Z,0
2018-08-20T02:23:35.690Z,0
2018-08-20T02:24:36.622Z,0
2018-08-20T02:25:36.248Z,0
2018-08-20T02:26:36.169Z,0
2018-08-20T02:27:36.032Z,0
2018-08-20T02:28:35.842Z,0
2018-08-20T02:29:35.628Z,0
2018-08-20T02:30:58.096Z,0
2018-08-20T02:31:58.500Z,0
2018-08-20T02:32:58.212Z,0
2018-08-20T02:34:41.077Z,0
2018-08-20T02:36:03.607Z,0
2018-08-20T02:37:03.986Z,0
2018-08-20T02:38:03.547Z,0
2018-08-20T02:39:04.569Z,0
2018-08-20T02:40:04.407Z,0
2018-08-20T02:41:04.254Z,0
2018-08-20T02:42:04.098Z,0
2018-08-20T02:43:04.060Z,0
2018-08-20T02:44:25.601Z,0
2018-08-20T02:45:26.433Z,0
2018-08-20T02:46:26.460Z,0
2018-08-20T02:47:26.477Z,0
2018-08-20T02:48:26.369Z,0
2018-08-20T02:49:26.295Z,0
2018-08-20T02:50:26.286Z,0
2018-08-20T02:51:26.364Z,0
2018-08-20T02:52:26.397Z,0
2018-08-20T02:53:26.049Z,0
2018-08-20T02:54:26.104Z,0
2018-08-20T02:55:25.919Z,0
2018-08-20T02:56:26.147Z,0
2018-08-20T02:57:26.030Z,0
2018-08-20T02:58:25.697Z,0
2018-08-20T02:59:26.038Z,0
2018-08-20T03:00:25.904Z,0
2018-08-20T03:01:46.736Z,0
2018-08-20T03:02:47.774Z,0
2018-08-20T03:03:47.853Z,0
2018-08-20T03:04:48.003Z,0
2018-08-20T03:05:47.713Z,0
2018-08-20T03:06:47.694Z,0
2018-08-20T03:07:47.500Z,0
2018-08-20T03:08:47.204Z,0
2018-08-20T03:09:47.005Z,0
2018-08-20T03:10:47.745Z,0
2018-08-20T03:11:47.573Z,0
2018-08-20T03:12:47.135Z,0
2018-08-20T03:13:47.114Z,0
2018-08-20T03:14:49.211Z,0
2018-08-20T03:15:48.210Z,0
2018-08-20T03:16:47.439Z,0
2018-08-20T03:17:47.409Z,0
2018-08-20T03:18:47.403Z,0
2018-08-20T03:19:47.269Z,0
2018-08-20T03:20:47.232Z,0
2018-08-20T03:21:47.549Z,0
2018-08-20T03:22:47.233Z,0
2018-08-20T03:23:46.939Z,0
2018-08-20T03:25:09.285Z,0
2018-08-20T03:26:09.485Z,0
2018-08-20T03:27:09.636Z,0
2018-08-20T03:28:09.368Z,0
2018-08-20T03:29:09.264Z,0
2018-08-20T03:30:09.236Z,0
2018-08-20T03:31:08.932Z,0
2018-08-20T03:32:09.423Z,0
2018-08-20T03:33:09.500Z,0
2018-08-20T03:34:09.219Z,0
2018-08-20T03:35:09.595Z,0
2018-08-20T03:36:31.237Z,0
2018-08-20T03:37:32.111Z,0
2018-08-20T03:38:32.102Z,0
2018-08-20T03:39:32.159Z,0
2018-08-20T03:40:32.380Z,0
2018-08-20T03:41:31.714Z,0
2018-08-20T03:42:31.845Z,0
2018-08-20T03:43:53.502Z,0
2018-08-20T03:44:54.118Z,0
2018-08-20T03:45:54.087Z,0
2018-08-20T03:47:15.204Z,0
2018-08-20T03:48:16.187Z,0
2018-08-20T03:49:38.390Z,0
2018-08-20T03:50:38.352Z,0
2018-08-20T03:51:38.040Z,0
2018-08-20T03:52:38.904Z,0
2018-08-20T03:53:38.856Z,0
2018-08-20T03:54:38.550Z,0
2018-08-20T03:55:38.381Z,0
2018-08-20T03:56:38.120Z,0
2018-08-20T03:57:39.037Z,0
2018-08-20T04:00:04.871Z,0
2018-08-20T04:01:27.007Z,0
2018-08-20T04:02:49.273Z,0
2018-08-20T04:03:48.926Z,0
2018-08-20T04:04:49.527Z,0
2018-08-20T04:05:49.176Z,0
2018-08-20T04:06:49.977Z,0
2018-08-20T04:07:49.795Z,0
2018-08-20T04:08:49.531Z,0
2018-08-20T04:09:49.010Z,0
2018-08-20T04:10:49.670Z,0
2018-08-20T04:11:49.629Z,0
2018-08-20T04:12:49.406Z,0
2018-08-20T04:13:49.071Z,0
2018-08-20T04:15:12.953Z,0
2018-08-20T04:16:34.740Z,0
2018-08-20T04:17:35.563Z,0
2018-08-20T04:18:35.269Z,0
2018-08-20T04:19:35.164Z,0
2018-08-20T04:20:34.912Z,1
2018-08-20T04:21:35.543Z,1
2018-08-20T04:22:35.323Z,1
2018-08-20T04:23:35.351Z,1
2018-08-20T04:24:34.839Z,1
2018-08-20T04:25:35.754Z,1
2018-08-20T04:26:56.657Z,1
2018-08-20T04:27:57.493Z,1
2018-08-20T04:28:57.463Z,1
2018-08-20T04:29:57.047Z,1
2018-08-20T04:30:56.779Z,2
2018-08-20T04:32:18.976Z,2
2018-08-20T04:33:19.874Z,2
2018-08-20T04:34:19.561Z,2
2018-08-20T04:35:19.487Z,3
2018-08-20T04:36:19.614Z,3
2018-08-20T04:37:40.663Z,3
2018-08-20T04:38:41.422Z,3
2018-08-20T04:39:41.150Z,3
2018-08-20T04:40:40.962Z,3
2018-08-20T04:42:03.003Z,3
2018-08-20T04:43:03.925Z,4
2018-08-20T04:44:03.613Z,4
2018-08-20T04:45:03.155Z,4
2018-08-20T04:46:04.093Z,4
2018-08-20T04:47:03.697Z,4
2018-08-20T04:48:03.742Z,4
2018-08-20T04:49:03.306Z,4
2018-08-20T04:50:03.054Z,4
2018-08-20T04:51:04.720Z,5
2018-08-20T04:52:03.893Z,5
2018-08-20T04:53:03.789Z,5
2018-08-20T04:54:25.031Z,5
2018-08-20T04:55:25.827Z,6
2018-08-20T04:56:25.448Z,4
2018-08-20T04:57:25.417Z,5
2018-08-20T04:58:25.315Z,6
2018-08-20T04:59:25.025Z,6
2018-08-20T05:00:25.774Z,7
2018-08-20T05:01:27.215Z,6
2018-08-20T05:02:47.062Z,6
2018-08-20T05:03:47.950Z,7
2018-08-20T05:04:48.092Z,8
2018-08-20T05:05:47.890Z,8
2018-08-20T05:06:47.731Z,8
2018-08-20T05:08:09.314Z,8
2018-08-20T05:09:30.937Z,7
2018-08-20T05:10:31.955Z,8
2018-08-20T05:11:30.900Z,8
2018-08-20T05:12:31.625Z,9
2018-08-20T05:13:31.458Z,10
2018-08-20T05:14:31.121Z,12
2018-08-20T05:15:31.130Z,10
2018-08-20T05:16:30.750Z,9
2018-08-20T05:17:31.515Z,8
2018-08-20T05:19:14.480Z,11
2018-08-20T05:20:15.432Z,12
2018-08-20T05:22:40.831Z,11
2018-08-20T05:23:41.607Z,11
2018-08-20T05:25:03.286Z,10
2018-08-20T05:26:04.412Z,12
2018-08-20T05:27:04.550Z,13
2018-08-20T05:28:03.610Z,13
2018-08-20T05:29:25.202Z,13
2018-08-20T05:30:46.658Z,15
2018-08-20T05:32:08.746Z,14
2018-08-20T05:33:31.047Z,15
2018-08-20T05:34:31.871Z,15
2018-08-20T05:35:31.913Z,13
2018-08-20T05:36:31.760Z,14
2018-08-20T05:37:32.077Z,13
2018-08-20T05:38:54.130Z,12
2018-08-20T05:39:15.535Z,12
2018-08-20T05:40:15.593Z,12
2018-08-20T05:41:15.236Z,13
2018-08-20T05:42:15.095Z,11
2018-08-20T05:43:15.805Z,13
2018-08-20T05:44:15.513Z,17
2018-08-20T05:45:16.237Z,17
2018-08-20T05:46:41.405Z,16
2018-08-20T05:47:42.860Z,17
2018-08-20T05:49:09.027Z,17
2018-08-20T05:50:06.785Z,14
2018-08-20T05:51:06.446Z,12
2018-08-20T05:52:06.212Z,13
2018-08-20T05:53:07.161Z,13
2018-08-20T05:54:06.816Z,14
2018-08-20T05:55:06.770Z,15
2018-08-20T05:56:49.817Z,15
2018-08-20T05:57:51.091Z,18
2018-08-20T05:59:11.289Z,18
2018-08-20T06:00:11.174Z,18
2018-08-20T06:01:12.195Z,19
2018-08-20T06:02:12.141Z,19
2018-08-20T06:03:11.794Z,19
2018-08-20T06:04:33.090Z,19
2018-08-20T06:05:34.096Z,22
2018-08-20T06:06:34.490Z,22
2018-08-20T06:07:33.550Z,17
2018-08-20T06:08:33.423Z,17
2018-08-20T06:09:33.514Z,21
2018-08-20T06:10:45.339Z,23
2018-08-20T06:11:33.547Z,31
2018-08-20T06:13:19.065Z,36
2018-08-20T06:14:41.000Z,28
2018-08-20T06:15:50.940Z,29
2018-08-20T06:16:47.564Z,28
2018-08-20T06:17:41.686Z,29
2018-08-20T06:18:41.652Z,34
2018-08-20T06:20:03.330Z,34
2018-08-20T06:21:04.348Z,33
2018-08-20T06:22:04.356Z,32
2018-08-20T06:23:03.284Z,33
2018-08-20T06:24:25.205Z,30
2018-08-20T06:25:26.233Z,30
2018-08-20T06:26:25.248Z,30
2018-08-20T06:27:24.977Z,30
2018-08-20T06:28:25.695Z,33
2018-08-20T06:29:25.283Z,33
2018-08-20T06:30:25.139Z,34
2018-08-20T06:31:26.218Z,35
2018-08-20T06:32:24.869Z,36
2018-08-20T06:33:47.557Z,38
2018-08-20T06:34:48.330Z,39
2018-08-20T06:36:10.709Z,40
2018-08-20T06:37:32.005Z,37
2018-08-20T06:38:31.814Z,36
2018-08-20T06:39:53.969Z,31
2018-08-20T06:40:54.850Z,30
2018-08-20T06:41:55.974Z,31
2018-08-20T06:42:54.983Z,30
2018-08-20T06:43:54.828Z,30
2018-08-20T06:44:54.836Z,29
2018-08-20T06:45:55.317Z,26
2018-08-20T06:46:54.198Z,26
2018-08-20T06:47:55.047Z,25
2018-08-20T06:48:54.849Z,25
2018-08-20T06:49:54.837Z,25
2018-08-20T06:50:54.598Z,24
2018-08-20T06:51:54.533Z,26
2018-08-20T06:52:54.436Z,33
2018-08-20T06:53:54.239Z,37
2018-08-20T06:54:55.171Z,38
2018-08-20T06:55:55.108Z,39
2018-08-20T06:56:54.670Z,38
2018-08-20T06:57:55.029Z,33
2018-08-20T06:59:16.316Z,29
2018-08-20T07:00:17.218Z,30
2018-08-20T07:01:17.054Z,30
2018-08-20T07:02:16.933Z,33
2018-08-20T07:03:16.831Z,37
2018-08-20T07:04:16.743Z,33
2018-08-20T07:05:16.537Z,28
2018-08-20T07:06:16.383Z,32
2018-08-20T07:07:17.308Z,34
2018-08-20T07:08:17.797Z,37
2018-08-20T07:09:59.534Z,47
2018-08-20T07:11:00.273Z,47
2018-08-20T07:12:00.371Z,52
2018-08-20T07:13:00.068Z,50
2018-08-20T07:14:00.104Z,41
2018-08-20T07:15:00.296Z,44
2018-08-20T07:16:00.214Z,45
2018-08-20T07:17:43.002Z,49
2018-08-20T07:18:43.672Z,45
2018-08-20T07:19:43.662Z,53
2018-08-20T07:20:43.680Z,52
2018-08-20T07:21:43.457Z,54
2018-08-20T07:22:43.404Z,58
2018-08-20T07:23:43.368Z,52
2018-08-20T07:25:04.819Z,47
2018-08-20T07:26:05.844Z,49
2018-08-20T07:27:05.899Z,58
2018-08-20T07:28:27.645Z,73
2018-08-20T07:29:28.310Z,83
2018-08-20T07:31:33.809Z,92
2018-08-20T07:32:33.048Z,90
2018-08-20T07:33:32.982Z,80
2018-08-20T07:34:32.868Z,83
2018-08-20T07:35:42.328Z,84
2018-08-20T07:36:33.413Z,86
2018-08-20T07:37:55.476Z,83
2018-08-20T07:39:16.778Z,81
2018-08-20T07:40:17.651Z,87
2018-08-20T07:41:17.573Z,80
2018-08-20T07:42:17.659Z,87
2018-08-20T07:43:17.780Z,91
2018-08-20T07:44:39.489Z,89
2018-08-20T07:45:39.561Z,91
2018-08-20T07:46:39.467Z,95
2018-08-20T07:47:39.399Z,99
2018-08-20T07:48:40.021Z,103
2018-08-20T07:50:22.895Z,105
2018-08-20T07:51:23.940Z,109
2018-08-20T07:52:23.806Z,109
2018-08-20T07:53:23.745Z,94
2018-08-20T07:54:23.612Z,87
2018-08-20T07:55:23.321Z,96
2018-08-20T07:56:23.432Z,90
2018-08-20T07:57:23.065Z,88
2018-08-20T07:58:24.256Z,100
2018-08-20T07:59:44.641Z,103
2018-08-20T08:00:44.572Z,102
2018-08-20T08:01:45.605Z,92
2018-08-20T08:03:06.627Z,102
2018-08-20T08:04:49.755Z,104
2018-08-20T08:05:50.684Z,104
2018-08-20T08:06:50.762Z,105
2018-08-20T08:07:50.646Z,100
2018-08-20T08:08:50.901Z,100
2018-08-20T08:09:49.893Z,114
2018-08-20T08:10:50.076Z,117
2018-08-20T08:11:51.412Z,102
2018-08-20T08:12:50.444Z,106
2018-08-20T08:13:50.674Z,107
2018-08-20T08:14:50.755Z,104
2018-08-20T08:15:50.763Z,116
2018-08-20T08:16:49.978Z,126
2018-08-20T08:17:49.698Z,117
2018-08-20T08:18:50.639Z,106
2018-08-20T08:20:33.143Z,119
2018-08-20T08:21:32.859Z,114
2018-08-20T08:22:33.493Z,106
2018-08-20T08:23:33.536Z,95
2018-08-20T08:24:33.152Z,78
2018-08-20T08:25:34.377Z,79
2018-08-20T08:26:33.514Z,104
2018-08-20T08:27:33.807Z,115
2018-08-20T08:28:33.686Z,112
2018-08-20T08:29:33.332Z,116
2018-08-20T08:30:33.170Z,114
2018-08-20T08:31:33.052Z,123
2018-08-20T08:32:32.860Z,123
2018-08-20T08:33:34.423Z,109
2018-08-20T08:34:33.582Z,110
2018-08-20T08:35:55.360Z,103
2018-08-20T08:36:54.986Z,104
2018-08-20T08:37:55.756Z,108
2018-08-20T08:39:17.337Z,111
2018-08-20T08:40:17.030Z,112
2018-08-20T08:41:17.875Z,116
2018-08-20T08:42:17.701Z,118
2018-08-20T08:43:39.467Z,112
2018-08-20T08:45:21.936Z,116
2018-08-20T08:46:22.663Z,113
2018-08-20T08:47:22.769Z,106
2018-08-20T08:48:22.658Z,101
2018-08-20T08:49:22.326Z,104
2018-08-20T08:50:22.650Z,116
2018-08-20T08:51:23.326Z,133
2018-08-20T08:52:22.038Z,134
2018-08-20T08:53:22.026Z,121
2018-08-20T08:54:21.741Z,110
2018-08-20T08:55:22.673Z,110
2018-08-20T08:56:22.750Z,103
2018-08-20T08:57:22.425Z,101
2018-08-20T08:58:22.160Z,90
2018-08-20T08:59:22.340Z,81
2018-08-20T09:00:22.409Z,83
2018-08-20T09:01:22.485Z,79
2018-08-20T09:02:22.723Z,72
2018-08-20T09:03:22.523Z,67
2018-08-20T09:04:22.162Z,60
2018-08-20T09:05:22.035Z,49
2018-08-20T09:06:21.799Z,38
2018-08-20T09:07:44.068Z,26
2018-08-20T09:08:44.700Z,25
2018-08-20T09:09:44.390Z,32
2018-08-20T09:10:45.069Z,46
2018-08-20T09:11:44.501Z,72
2018-08-20T09:12:45.399Z,85
2018-08-20T09:14:06.455Z,89
2018-08-20T09:15:07.591Z,86
2018-08-20T09:16:06.499Z,88
2018-08-20T09:17:29.401Z,85
2018-08-20T09:18:30.243Z,82
2018-08-20T09:19:30.353Z,78
2018-08-20T09:20:30.280Z,77
2018-08-20T09:21:30.652Z,79
2018-08-20T09:22:29.445Z,86
2018-08-20T09:23:30.050Z,93
2018-08-20T09:24:30.283Z,94
2018-08-20T09:25:30.015Z,95
2018-08-20T09:26:30.019Z,110
2018-08-20T09:27:30.154Z,113
2018-08-20T09:28:52.744Z,111
2018-08-20T09:29:52.578Z,110
2018-08-20T09:30:52.650Z,103
2018-08-20T09:31:52.893Z,97
2018-08-20T09:32:52.664Z,83
2018-08-20T09:33:52.290Z,73
2018-08-20T09:34:52.776Z,66
2018-08-20T09:35:52.483Z,70
2018-08-20T09:36:52.760Z,78
2018-08-20T09:37:52.480Z,78
2018-08-20T09:39:35.059Z,69
2018-08-20T09:40:36.081Z,85
2018-08-20T09:41:36.326Z,100
2018-08-20T09:42:59.213Z,104
2018-08-20T09:43:59.917Z,100
2018-08-20T09:44:58.761Z,96
2018-08-20T09:45:58.505Z,91
2018-08-20T09:46:58.262Z,89
2018-08-20T09:47:59.306Z,88
2018-08-20T09:48:59.316Z,86
2018-08-20T09:50:21.224Z,90
2018-08-20T09:51:21.696Z,99
2018-08-20T09:52:21.741Z,111
2018-08-20T09:53:21.623Z,117
2018-08-20T09:54:21.781Z,115
2018-08-20T09:55:22.092Z,112
2018-08-20T09:56:20.824Z,105
2018-08-20T09:57:21.764Z,101
2018-08-20T09:58:43.938Z,117
2018-08-20T09:59:44.243Z,137
2018-08-20T10:01:06.757Z,148
2018-08-20T10:02:05.854Z,156
2018-08-20T10:03:05.730Z,155
2018-08-20T10:04:05.650Z,144
2018-08-20T10:05:05.556Z,125
2018-08-20T10:06:06.708Z,108
2018-08-20T10:07:05.608Z,97
2018-08-20T10:08:05.264Z,90
2018-08-20T10:09:06.380Z,86
2018-08-20T10:10:06.058Z,87
2018-08-20T10:11:50.013Z,101
2018-08-20T10:12:52.893Z,108
2018-08-20T10:13:50.861Z,113
2018-08-20T10:14:51.838Z,113
2018-08-20T10:15:55.948Z,114
2018-08-20T10:16:51.701Z,118
2018-08-20T10:17:51.151Z,130
2018-08-20T10:19:11.789Z,153
2018-08-20T10:20:12.569Z,172
2018-08-20T10:21:12.500Z,194
2018-08-20T10:22:18.265Z,210
2018-08-20T10:23:12.357Z,218
2018-08-20T10:24:12.542Z,208
2018-08-20T10:25:12.362Z,182
2018-08-20T10:26:18.548Z,166
2018-08-20T10:27:16.123Z,152
2018-08-20T10:28:12.361Z,128
2018-08-20T10:29:12.202Z,114
2018-08-20T10:30:33.630Z,93
2018-08-20T10:31:34.748Z,78
2018-08-20T10:32:45.811Z,68
2018-08-20T10:33:35.779Z,63
2018-08-20T10:34:58.261Z,51
2018-08-20T10:35:58.270Z,45
2018-08-20T10:36:58.275Z,42
2018-08-20T10:37:58.510Z,44
2018-08-20T10:39:23.438Z,44
2018-08-20T10:40:22.393Z,40
2018-08-20T10:41:22.267Z,45
2018-08-20T10:42:22.169Z,56
2018-08-20T10:43:44.486Z,76
2018-08-20T10:44:44.518Z,96
2018-08-20T10:45:44.845Z,109
2018-08-20T10:46:43.783Z,112
2018-08-20T10:47:43.822Z,112
2018-08-20T10:48:43.666Z,117
2018-08-20T10:49:45.027Z,120
2018-08-20T10:50:44.035Z,125
2018-08-20T10:51:44.085Z,133
2018-08-20T10:52:44.071Z,144
2018-08-20T10:53:43.929Z,136
2018-08-20T10:54:43.571Z,121
2018-08-20T10:55:44.471Z,107
2018-08-20T10:56:44.636Z,96
2018-08-20T10:57:43.632Z,90
2018-08-20T10:59:07.101Z,82
2018-08-20T11:00:07.822Z,81
2018-08-20T11:01:07.935Z,82
2018-08-20T11:02:08.574Z,84
2018-08-20T11:03:31.365Z,89
2018-08-20T11:04:31.618Z,96
2018-08-20T11:05:32.306Z,106
2018-08-20T11:06:55.613Z,123
2018-08-20T11:07:55.085Z,140
2018-08-20T11:08:55.177Z,156
2018-08-20T11:09:55.335Z,169
2018-08-20T11:10:55.535Z,182
2018-08-20T11:11:54.325Z,193
2018-08-20T11:13:18.082Z,195
2018-08-20T11:14:18.371Z,196
2018-08-20T11:16:02.669Z,208
2018-08-20T11:17:02.686Z,207
2018-08-20T11:18:24.475Z,204
2018-08-20T11:19:24.573Z,202
2018-08-20T11:20:24.727Z,209
2018-08-20T11:21:25.379Z,216
2018-08-20T11:22:25.848Z,224
2018-08-20T11:23:25.180Z,234
2018-08-20T11:24:24.947Z,246
2018-08-20T11:25:24.665Z,257
2018-08-20T11:26:25.807Z,263
2018-08-20T11:27:24.977Z,259
2018-08-20T11:28:24.882Z,252
2018-08-20T11:29:24.978Z,244
2018-08-20T11:30:25.194Z,254
2018-08-20T11:31:24.288Z,257
2018-08-20T11:32:25.511Z,267
2018-08-20T11:33:25.198Z,276
2018-08-20T11:34:24.312Z,286
2018-08-20T11:35:25.240Z,293
2018-08-20T11:36:24.403Z,301
2018-08-20T11:37:47.086Z,309
2018-08-20T11:38:47.445Z,311
2018-08-20T11:39:48.400Z,309
2018-08-20T11:40:47.261Z,329
2018-08-20T11:41:47.403Z,372
2018-08-20T11:43:09.494Z,430
2018-08-20T11:44:32.370Z,499
2018-08-20T11:45:33.400Z,598
2018-08-20T11:46:34.097Z,631
2018-08-20T11:47:33.999Z,538
2018-08-20T11:48:33.943Z,438
2018-08-20T11:49:54.326Z,516
2018-08-20T11:50:55.947Z,794
2018-08-20T11:51:56.262Z,736
2018-08-20T11:52:55.612Z,819
2018-08-20T11:53:55.285Z,796
2018-08-20T11:56:02.995Z,766
2018-08-20T11:57:04.422Z,749
2018-08-20T11:58:03.363Z,748
2018-08-20T11:59:03.315Z,745
2018-08-20T12:00:03.423Z,737
2018-08-20T12:01:03.388Z,757
2018-08-20T12:02:03.299Z,788
2018-08-20T12:03:03.331Z,802
2018-08-20T12:04:03.522Z,811
2018-08-20T12:05:03.321Z,765
2018-08-20T12:06:04.393Z,541
2018-08-20T12:07:04.469Z,401
2018-08-20T12:08:03.675Z,293
2018-08-20T12:09:03.526Z,271
2018-08-20T12:10:03.756Z,257
2018-08-20T12:11:03.879Z,248
2018-08-20T12:12:04.081Z,238
2018-08-20T12:13:03.291Z,226
2018-08-20T12:14:03.516Z,215
2018-08-20T12:15:03.409Z,213
2018-08-20T12:16:04.311Z,185
2018-08-20T12:17:03.180Z,169
2018-08-20T12:18:24.705Z,144
2018-08-20T12:19:26.084Z,129
2018-08-20T12:20:25.406Z,117
2018-08-20T12:21:25.705Z,106
2018-08-20T12:22:25.647Z,98
2018-08-20T12:23:25.853Z,93
2018-08-20T12:24:25.906Z,94
2018-08-20T12:25:26.379Z,97
2018-08-20T12:26:25.362Z,105
2018-08-20T12:27:25.348Z,123
2018-08-20T12:28:25.179Z,136
2018-08-20T12:29:25.383Z,145
2018-08-20T12:30:25.496Z,149
2018-08-20T12:31:25.651Z,153
2018-08-20T12:32:25.643Z,155
2018-08-20T12:33:25.495Z,160
2018-08-20T12:34:25.902Z,165
2018-08-20T12:35:24.851Z,168
2018-08-20T12:36:24.726Z,176
2018-08-20T12:37:25.905Z,177
2018-08-20T12:38:46.838Z,177
2018-08-20T12:39:47.668Z,175
2018-08-20T12:40:47.895Z,173
2018-08-20T12:42:09.346Z,167
2018-08-20T12:43:09.465Z,165
2018-08-20T12:44:10.247Z,165
2018-08-20T12:45:09.562Z,168
2018-08-20T12:46:31.278Z,167
2018-08-20T12:48:16.582Z,156
2018-08-20T12:49:16.897Z,141
2018-08-20T12:50:38.517Z,125
2018-08-20T12:52:03.878Z,139
2018-08-20T12:53:04.285Z,159
2018-08-20T12:54:04.606Z,178
2018-08-20T12:55:25.402Z,201
2018-08-20T12:56:26.109Z,209
2018-08-20T12:57:25.694Z,207
2018-08-20T12:58:25.521Z,203
2018-08-20T12:59:26.482Z,200
2018-08-20T13:00:25.354Z,197
2018-08-20T13:01:26.692Z,193
2018-08-20T13:02:25.778Z,190
2018-08-20T13:03:26.344Z,187
2018-08-20T13:04:27.010Z,193
2018-08-20T13:05:26.832Z,195
2018-08-20T13:06:25.489Z,197
2018-08-20T13:07:28.524Z,209
2018-08-20T13:08:25.673Z,212
2018-08-20T13:09:26.515Z,207
2018-08-20T13:10:26.398Z,205
2018-08-20T13:11:26.196Z,211
2018-08-20T13:12:26.079Z,213
2018-08-20T13:13:26.470Z,223
2018-08-20T13:14:26.550Z,243
2018-08-20T13:16:09.626Z,296
2018-08-20T13:17:09.545Z,287
2018-08-20T13:18:09.610Z,291
2018-08-20T13:19:09.762Z,270
2018-08-20T13:20:30.921Z,249
2018-08-20T13:21:32.688Z,240
2018-08-20T13:22:31.746Z,239
2018-08-20T13:23:32.069Z,223
2018-08-20T13:24:53.879Z,207
2018-08-20T13:25:55.402Z,198
2018-08-20T13:26:53.978Z,189
2018-08-20T13:27:54.910Z,184
2018-08-20T13:28:54.952Z,178
2018-08-20T13:29:54.640Z,172
2018-08-20T13:31:38.266Z,155
2018-08-20T13:32:38.009Z,143
2018-08-20T13:33:38.713Z,135
2018-08-20T13:34:38.298Z,131
2018-08-20T13:35:38.250Z,126
2018-08-20T13:36:38.716Z,123
2018-08-20T13:37:37.641Z,119
2018-08-20T13:38:37.929Z,114
2018-08-20T13:39:37.968Z,111
2018-08-20T13:40:38.042Z,109
2018-08-20T13:41:59.424Z,105
2018-08-20T13:43:00.109Z,104
2018-08-20T13:44:00.320Z,103
2018-08-20T13:45:00.520Z,104
2018-08-20T13:46:00.220Z,105
2018-08-20T13:47:00.893Z,106
2018-08-20T13:48:26.021Z,105
2018-08-20T13:49:24.610Z,105
2018-08-20T13:50:46.243Z,109
2018-08-20T13:51:47.394Z,114
2018-08-20T13:52:47.009Z,123
2018-08-20T13:53:46.674Z,132
2018-08-20T13:54:47.417Z,143
2018-08-20T13:55:46.421Z,153
2018-08-20T13:57:09.090Z,169
2018-08-20T13:58:09.171Z,176
2018-08-20T13:59:09.645Z,175
2018-08-20T14:00:31.233Z,172
2018-08-20T14:02:13.408Z,168
2018-08-20T14:03:33.655Z,164
2018-08-20T14:05:25.588Z,149
2018-08-20T14:06:24.268Z,138
2018-08-20T14:07:36.989Z,130
2018-08-20T14:08:33.018Z,127
2018-08-20T14:09:32.888Z,128
2018-08-20T14:10:32.859Z,130
2018-08-20T14:11:34.265Z,131
2018-08-20T14:12:34.759Z,132
2018-08-20T14:13:34.479Z,136
2018-08-20T14:14:33.644Z,140
2018-08-20T14:15:33.721Z,148
2018-08-20T14:16:33.677Z,158
2018-08-20T14:17:38.878Z,164
2018-08-20T14:18:34.248Z,167
2018-08-20T14:19:56.659Z,175
2018-08-20T14:20:57.072Z,178
2018-08-20T14:21:56.750Z,182
2018-08-20T14:22:59.630Z,186
2018-08-20T14:23:56.498Z,191
2018-08-20T14:24:58.451Z,188
2018-08-20T14:25:56.716Z,181
2018-08-20T14:26:56.984Z,180
2018-08-20T14:27:58.526Z,180
2018-08-20T14:28:57.405Z,177
2018-08-20T14:29:56.766Z,182
2018-08-20T14:30:58.494Z,183
2018-08-20T14:31:57.413Z,184
2018-08-20T14:32:59.750Z,185
2018-08-20T14:33:56.864Z,169
2018-08-20T14:34:58.046Z,176
2018-08-20T14:35:57.042Z,178
2018-08-20T14:36:57.939Z,184
2018-08-20T14:37:57.044Z,193
2018-08-20T14:38:57.013Z,200
2018-08-20T14:39:56.898Z,205
2018-08-20T14:40:58.150Z,239
2018-08-20T14:42:42.526Z,201
2018-08-20T14:43:43.147Z,207
2018-08-20T14:45:05.955Z,206
2018-08-20T14:46:08.429Z,202
2018-08-20T14:47:08.680Z,190
2018-08-20T14:48:05.893Z,176
2018-08-20T14:49:06.328Z,159
2018-08-20T14:50:16.925Z,141
2018-08-20T14:51:06.391Z,130
2018-08-20T14:52:07.016Z,122
2018-08-20T14:53:06.544Z,114
2018-08-20T14:54:37.536Z,104
2018-08-20T14:55:32.816Z,102
2018-08-20T14:56:32.069Z,102
2018-08-20T14:57:39.777Z,104
2018-08-20T14:58:33.410Z,107
2018-08-20T14:59:31.604Z,112
2018-08-20T15:00:31.806Z,121
2018-08-20T15:01:32.070Z,131
2018-08-20T15:02:34.013Z,132
2018-08-20T15:03:53.924Z,135
2018-08-20T15:04:54.140Z,140
2018-08-20T15:05:54.661Z,151
2018-08-20T15:06:55.324Z,165
2018-08-20T15:08:16.535Z,177
2018-08-20T15:09:18.101Z,183
2018-08-20T15:10:17.190Z,185
2018-08-20T15:11:17.098Z,185
2018-08-20T15:12:39.583Z,194
2018-08-20T15:13:39.976Z,201
2018-08-20T15:14:40.741Z,303
2018-08-20T15:15:40.810Z,321